createdAt,value
2019-01-03T00:00:25.536Z,58.68
2019-01-03T00:03:44.643Z,58.84
2019-01-03T00:06:52.184Z,58.84
2019-01-03T00:09:53.076Z,58.97
2019-01-03T00:13:17.513Z,58.98
2019-01-03T00:16:38.785Z,59.02
2019-01-03T00:19:47.586Z,58.95
2019-01-03T00:23:13.962Z,59.05
2019-01-03T00:26:21.250Z,59.17
2019-01-03T00:29:29.024Z,59.23
2019-01-03T00:32:36.188Z,59.30
2019-01-03T00:35:44.767Z,59.26
2019-01-03T00:38:52.329Z,59.34
2019-01-03T00:42:07.414Z,59.33
2019-01-03T00:45:15.381Z,59.37
2019-01-03T00:48:25.348Z,59.42
2019-01-03T00:51:33.072Z,59.57
2019-01-03T00:54:41.228Z,59.48
2019-01-03T00:57:49.291Z,59.35
2019-01-03T01:00:57.308Z,59.55
2019-01-03T01:04:15.173Z,59.62
2019-01-03T01:07:39.129Z,59.55
2019-01-03T01:10:46.889Z,59.57
2019-01-03T01:13:48.485Z,59.56
2019-01-03T01:16:56.058Z,59.79
2019-01-03T01:20:07.981Z,59.88
2019-01-03T01:23:14.464Z,59.96
2019-01-03T01:26:29.908Z,59.97
2019-01-03T01:29:38.576Z,60.04
2019-01-03T01:32:53.381Z,60.08
2019-01-03T01:36:08.602Z,60.00
2019-01-03T01:39:25.216Z,60.11
2019-01-03T01:42:28.631Z,60.06
2019-01-03T01:45:36.418Z,60.01
2019-01-03T01:48:43.825Z,60.15
2019-01-03T01:51:57.317Z,60.23
2019-01-03T01:55:04.844Z,60.33
2019-01-03T01:58:25.974Z,60.42
2019-01-03T02:01:32.807Z,60.54
2019-01-03T02:04:48.424Z,60.63
2019-01-03T02:07:52.760Z,60.71
2019-01-03T02:11:03.065Z,60.70
2019-01-03T02:14:21.993Z,60.71
2019-01-03T02:17:37.432Z,60.75
2019-01-03T02:20:45.480Z,60.75
2019-01-03T02:23:54.047Z,60.78
2019-01-03T02:27:13.524Z,60.83
2019-01-03T02:30:16.830Z,60.93
2019-01-03T02:33:26.674Z,61.03
2019-01-03T02:36:52.288Z,61.11
2019-01-03T02:40:01.614Z,61.14
2019-01-03T02:43:07.266Z,61.19
2019-01-03T02:46:15.201Z,61.31
2019-01-03T02:49:36.726Z,61.41
2019-01-03T02:52:44.849Z,61.43
2019-01-03T02:55:54.662Z,61.48
2019-01-03T02:58:54.057Z,61.51
2019-01-03T03:02:06.790Z,61.57
2019-01-03T03:05:10.901Z,61.63
2019-01-03T03:08:12.139Z,61.67
2019-01-03T03:11:17.851Z,61.69
2019-01-03T03:14:33.271Z,61.69
2019-01-03T03:17:36.781Z,61.73
2019-01-03T03:20:42.246Z,61.79
2019-01-03T03:24:00.678Z,61.90
2019-01-03T03:27:09.083Z,61.95
2019-01-03T03:30:16.399Z,61.93
2019-01-03T03:33:23.538Z,61.97
2019-01-03T03:36:29.643Z,62.07
2019-01-03T03:39:47.756Z,62.07
2019-01-03T03:42:55.214Z,62.11
2019-01-03T03:46:02.992Z,62.16
2019-01-03T03:49:25.216Z,62.13
2019-01-03T03:52:36.814Z,62.17
2019-01-03T03:55:58.032Z,62.27
2019-01-03T03:59:05.545Z,62.30
2019-01-03T04:02:25.917Z,62.32
2019-01-03T04:05:33.561Z,62.35
2019-01-03T04:08:53.189Z,62.26
2019-01-03T04:12:05.309Z,62.37
2019-01-03T04:15:26.451Z,62.42
2019-01-03T04:18:33.991Z,62.43
2019-01-03T04:21:54.618Z,62.37
2019-01-03T04:25:02.081Z,62.36
2019-01-03T04:28:13.627Z,62.37
2019-01-03T04:31:27.459Z,62.39
2019-01-03T04:34:37.626Z,62.33
2019-01-03T04:37:46.712Z,62.41
2019-01-03T04:40:58.318Z,62.41
2019-01-03T04:44:13.157Z,62.36
2019-01-03T04:47:24.731Z,62.12
2019-01-03T04:50:32.315Z,62.17
2019-01-03T04:53:56.500Z,62.07
2019-01-03T04:57:13.525Z,61.86
2019-01-03T05:00:22.546Z,61.99
2019-01-03T05:03:38.289Z,62.25
2019-01-03T05:06:51.421Z,62.20
2019-01-03T05:10:09.027Z,62.09
2019-01-03T05:13:16.607Z,61.98
2019-01-03T05:16:34.112Z,61.98
2019-01-03T05:19:55.714Z,61.94
2019-01-03T05:23:12.808Z,61.94
2019-01-03T05:26:26.358Z,61.89
2019-01-03T05:29:28.334Z,61.88
2019-01-03T05:32:41.152Z,61.97
2019-01-03T05:35:54.034Z,61.75
2019-01-03T05:39:14.143Z,61.75
2019-01-03T05:42:21.739Z,61.71
2019-01-03T05:45:22.485Z,61.57
2019-01-03T05:48:30.784Z,61.15
2019-01-03T05:51:51.456Z,61.31
2019-01-03T05:54:59.106Z,61.18
2019-01-03T05:58:21.439Z,61.34
2019-01-03T06:01:31.518Z,61.17
2019-01-03T06:04:44.833Z,61.22
2019-01-03T06:07:52.325Z,60.80
2019-01-03T06:10:52.760Z,60.88
2019-01-03T06:14:00.594Z,61.13
2019-01-03T06:17:24.339Z,60.94
2019-01-03T06:20:31.563Z,61.02
2019-01-03T06:23:39.173Z,61.13
2019-01-03T06:26:51.622Z,61.11
2019-01-03T06:30:18.376Z,61.27
2019-01-03T06:33:33.957Z,60.93
2019-01-03T06:36:45.809Z,60.93
2019-01-03T06:39:53.507Z,61.01
2019-01-03T06:42:59.858Z,60.92
2019-01-03T06:46:24.728Z,60.83
2019-01-03T06:49:32.114Z,60.65
2019-01-03T06:52:48.322Z,60.99
2019-01-03T06:55:53.257Z,60.89
2019-01-03T06:58:58.799Z,60.70
2019-01-03T07:02:06.670Z,60.81
2019-01-03T07:05:25.933Z,60.70
2019-01-03T07:08:33.769Z,60.69
2019-01-03T07:11:37.390Z,60.75
2019-01-03T07:14:43.954Z,60.83
2019-01-03T07:17:52.576Z,60.67
2019-01-03T07:21:00.840Z,60.56
2019-01-03T07:24:05.921Z,60.31
2019-01-03T07:27:14.724Z,60.63
2019-01-03T07:30:36.282Z,60.17
2019-01-03T07:33:54.421Z,60.43
2019-01-03T07:37:03.506Z,60.16
2019-01-03T07:40:16.684Z,60.24
2019-01-03T07:43:37.983Z,60.24
2019-01-03T07:46:49.849Z,60.28
2019-01-03T07:49:57.492Z,59.70
2019-01-03T07:53:12.590Z,60.04
2019-01-03T07:56:20.026Z,60.05
2019-01-03T07:59:28.669Z,59.69
2019-01-03T08:02:35.673Z,59.92
2019-01-03T08:05:48.285Z,59.63
2019-01-03T08:08:55.655Z,59.59
2019-01-03T08:12:23.451Z,59.47
2019-01-03T08:15:34.398Z,59.38
2019-01-03T08:18:52.320Z,59.51
2019-01-03T08:22:00.260Z,59.10
2019-01-03T08:25:11.132Z,59.52
2019-01-03T08:28:14.945Z,59.34
2019-01-03T08:31:20.321Z,58.21
2019-01-03T08:34:28.322Z,58.62
2019-01-03T08:37:49.540Z,58.24
2019-01-03T08:41:13.557Z,58.33
2019-01-03T08:44:25.494Z,58.40
2019-01-03T08:47:41.086Z,57.46
2019-01-03T08:50:48.390Z,58.08
2019-01-03T08:53:55.774Z,57.75
2019-01-03T08:57:06.026Z,57.77
2019-01-03T09:00:20.859Z,57.36
2019-01-03T09:03:29.831Z,56.58
2019-01-03T09:06:37.270Z,56.88
2019-01-03T09:09:42.234Z,56.21
2019-01-03T09:12:51.082Z,56.65
2019-01-03T09:15:55.297Z,56.19
2019-01-03T09:19:03.107Z,55.79
2019-01-03T09:22:11.199Z,55.72
2019-01-03T09:25:32.710Z,55.48
2019-01-03T09:28:44.812Z,55.56
2019-01-03T09:31:48.140Z,54.27
2019-01-03T09:34:56.138Z,54.87
2019-01-03T09:38:05.877Z,53.65
2019-01-03T09:41:23.207Z,54.11
2019-01-03T09:44:29.840Z,53.75
2019-01-03T09:47:19.759Z,53.75
2019-01-03T09:50:09.612Z,53.86
2019-01-03T09:52:59.022Z,53.84
2019-01-03T09:55:48.949Z,54.22
2019-01-03T09:58:39.076Z,53.88
2019-01-03T10:01:29.780Z,53.16
2019-01-03T10:04:19.227Z,53.46
2019-01-03T10:07:10.776Z,53.81
2019-01-03T10:10:01.616Z,53.32
2019-01-03T10:12:51.626Z,53.07
2019-01-03T10:15:41.625Z,53.60
2019-01-03T10:18:31.184Z,53.29
2019-01-03T10:21:21.075Z,53.91
2019-01-03T10:24:11.265Z,53.87
2019-01-03T10:27:01.343Z,52.21
2019-01-03T10:29:51.446Z,53.30
2019-01-03T10:32:41.703Z,53.56
2019-01-03T10:35:31.691Z,53.49
2019-01-03T10:38:21.910Z,53.53
2019-01-03T10:41:12.054Z,53.55
2019-01-03T10:44:01.880Z,53.34
2019-01-03T10:46:51.613Z,53.29
2019-01-03T10:49:41.690Z,53.15
2019-01-03T10:52:32.226Z,53.53
2019-01-03T10:55:22.651Z,52.24
2019-01-03T10:58:12.954Z,52.93
2019-01-03T11:01:02.442Z,51.27
2019-01-03T11:03:52.047Z,52.01
2019-01-03T11:06:41.918Z,52.70
2019-01-03T11:09:31.795Z,52.63
2019-01-03T11:12:22.211Z,50.86
2019-01-03T11:15:12.104Z,52.34
2019-01-03T11:18:02.308Z,52.43
2019-01-03T11:20:52.239Z,51.65
2019-01-03T11:23:42.263Z,51.82
2019-01-03T11:26:32.434Z,51.38
2019-01-03T11:29:23.633Z,51.95
2019-01-03T11:32:13.768Z,52.34
2019-01-03T11:35:04.287Z,52.52
2019-01-03T11:37:54.026Z,52.41
2019-01-03T11:40:44.511Z,51.76
2019-01-03T11:43:34.787Z,51.55
2019-01-03T11:46:24.121Z,52.10
2019-01-03T11:49:27.153Z,50.36
2019-01-03T11:52:16.917Z,50.93
2019-01-03T11:55:06.634Z,51.32
2019-01-03T11:57:56.729Z,50.31
2019-01-03T12:00:46.792Z,51.10
2019-01-03T12:03:36.933Z,50.69
2019-01-03T12:06:26.766Z,50.80
2019-01-03T12:09:16.780Z,50.44
2019-01-03T12:12:06.789Z,51.11
2019-01-03T12:14:57.026Z,50.51
2019-01-03T12:17:46.838Z,50.63
2019-01-03T12:20:37.035Z,50.29
2019-01-03T12:23:27.822Z,50.98
2019-01-03T12:26:17.716Z,51.20
2019-01-03T12:29:07.584Z,50.75
2019-01-03T12:31:57.458Z,50.93
2019-01-03T12:34:47.771Z,51.52
2019-01-03T12:37:37.657Z,51.85
2019-01-03T12:40:27.417Z,51.62
2019-01-03T12:43:17.523Z,49.75
2019-01-03T12:46:07.568Z,50.91
2019-01-03T12:48:57.267Z,50.58
2019-01-03T12:51:47.327Z,50.99
2019-01-03T12:54:37.236Z,50.15
2019-01-03T12:57:28.055Z,51.08
2019-01-03T13:00:18.208Z,51.35
2019-01-03T13:03:08.446Z,51.49
2019-01-03T13:05:58.526Z,50.88
2019-01-03T13:08:48.817Z,50.70
2019-01-03T13:11:38.839Z,50.72
2019-01-03T13:14:28.710Z,51.13
2019-01-03T13:17:18.965Z,50.38
2019-01-03T13:20:10.871Z,50.78
2019-01-03T13:23:00.573Z,50.35
2019-01-03T13:25:50.938Z,50.75
2019-01-03T13:28:40.916Z,51.22
2019-01-03T13:31:31.266Z,51.79
2019-01-03T13:34:20.957Z,50.69
2019-01-03T13:37:10.867Z,51.47
2019-01-03T13:40:00.949Z,51.53
2019-01-03T13:42:51.076Z,51.58
2019-01-03T13:45:41.055Z,51.28
2019-01-03T13:48:30.939Z,51.78
2019-01-03T13:51:21.178Z,51.83
2019-01-03T13:54:11.443Z,51.89
2019-01-03T13:57:01.277Z,51.46
2019-01-03T13:59:51.106Z,51.79
2019-01-03T14:02:40.701Z,51.60
2019-01-03T14:05:31.175Z,51.54
2019-01-03T14:08:20.768Z,52.21
2019-01-03T14:11:10.899Z,52.19
2019-01-03T14:14:00.716Z,51.66
2019-01-03T14:16:50.587Z,52.26
2019-01-03T14:19:40.256Z,52.51
2019-01-03T14:22:30.315Z,52.65
2019-01-03T14:25:20.461Z,52.94
2019-01-03T14:28:09.996Z,52.77
2019-01-03T14:31:00.268Z,52.69
2019-01-03T14:33:50.287Z,52.11
2019-01-03T14:36:40.183Z,52.91
2019-01-03T14:39:30.018Z,53.11
2019-01-03T14:42:20.088Z,53.34
2019-01-03T14:45:10.673Z,53.47
2019-01-03T14:48:00.665Z,53.48
2019-01-03T14:50:50.142Z,53.79
2019-01-03T14:53:40.568Z,53.82
2019-01-03T14:56:30.495Z,53.75
2019-01-03T14:59:19.857Z,53.92
2019-01-03T15:02:09.894Z,53.85
2019-01-03T15:04:59.929Z,54.21
2019-01-03T15:07:49.861Z,54.15
2019-01-03T15:10:39.634Z,54.27
2019-01-03T15:13:29.702Z,53.97
2019-01-03T15:16:19.484Z,54.32
2019-01-03T15:19:09.488Z,54.49
2019-01-03T15:21:59.482Z,54.46
2019-01-03T15:24:49.795Z,54.53
2019-01-03T15:27:40.076Z,54.84
2019-01-03T15:30:30.118Z,54.85
2019-01-03T15:33:19.868Z,55.00
2019-01-03T15:36:09.956Z,55.18
2019-01-03T15:38:59.910Z,55.24
2019-01-03T15:41:49.857Z,55.40
2019-01-03T15:44:39.714Z,55.54
2019-01-03T15:47:29.706Z,55.49
2019-01-03T15:50:19.955Z,55.57
2019-01-03T15:53:10.011Z,55.83
2019-01-03T15:56:00.100Z,55.90
2019-01-03T15:58:50.124Z,56.06
2019-01-03T16:01:40.340Z,56.15
2019-01-03T16:04:30.314Z,56.25
2019-01-03T16:07:20.587Z,56.37
2019-01-03T16:10:10.800Z,56.47
2019-01-03T16:13:00.618Z,56.58
2019-01-03T16:15:50.632Z,56.71
2019-01-03T16:18:40.390Z,56.74
2019-01-03T16:21:30.100Z,56.64
2019-01-03T16:24:20.260Z,56.78
2019-01-03T16:27:10.161Z,56.79
2019-01-03T16:30:11.290Z,56.63
2019-01-03T16:33:00.787Z,56.92
2019-01-03T16:35:50.549Z,57.03
2019-01-03T16:38:40.081Z,57.13
2019-01-03T16:41:29.697Z,57.16
2019-01-03T16:44:20.180Z,57.24
2019-01-03T16:47:10.100Z,57.15
2019-01-03T16:49:59.978Z,57.15
2019-01-03T16:52:50.211Z,57.34
2019-01-03T16:55:39.861Z,57.40
2019-01-03T16:58:29.557Z,57.47
2019-01-03T17:01:19.551Z,57.45
2019-01-03T17:04:09.382Z,57.56
2019-01-03T17:06:59.410Z,57.52
2019-01-03T17:09:49.594Z,57.67
2019-01-03T17:12:39.477Z,57.80
2019-01-03T17:15:29.329Z,57.94
2019-01-03T17:18:19.460Z,57.97
2019-01-03T17:21:09.527Z,57.90
2019-01-03T17:23:59.451Z,57.98
2019-01-03T17:26:49.360Z,57.75
2019-01-03T17:29:38.836Z,57.98
2019-01-03T17:32:28.611Z,58.00
2019-01-03T17:35:18.554Z,58.06
2019-01-03T17:38:08.462Z,57.86
2019-01-03T17:40:58.578Z,57.96
2019-01-03T17:43:47.682Z,57.93
2019-01-03T17:46:37.522Z,57.97
2019-01-03T17:49:27.806Z,58.05
2019-01-03T17:52:17.594Z,58.10
2019-01-03T17:55:08.616Z,58.16
2019-01-03T17:57:58.546Z,58.36
2019-01-03T18:00:49.270Z,58.40
2019-01-03T18:03:39.923Z,58.46
2019-01-03T18:06:28.856Z,58.43
2019-01-03T18:09:18.591Z,58.58
2019-01-03T18:12:09.140Z,58.73
2019-01-03T18:14:58.833Z,58.75
2019-01-03T18:17:48.627Z,58.93
2019-01-03T18:20:38.907Z,59.09
2019-01-03T18:23:28.518Z,59.20
2019-01-03T18:26:18.723Z,59.29
2019-01-03T18:29:08.297Z,59.55
2019-01-03T18:31:59.057Z,59.58
2019-01-03T18:34:49.278Z,59.69
2019-01-03T18:37:39.560Z,59.83
2019-01-03T18:40:29.786Z,59.94
2019-01-03T18:43:19.559Z,59.91
2019-01-03T18:46:08.924Z,60.00
2019-01-03T18:48:58.748Z,60.14
2019-01-03T18:51:48.490Z,60.21
2019-01-03T18:54:38.352Z,60.21
2019-01-03T18:57:28.103Z,60.18
2019-01-03T19:00:17.785Z,60.29
2019-01-03T19:03:07.620Z,60.47
2019-01-03T19:05:57.513Z,60.62
2019-01-03T19:08:47.608Z,60.76
2019-01-03T19:11:37.688Z,61.04
2019-01-03T19:14:27.751Z,60.93
2019-01-03T19:17:17.769Z,60.92
2019-01-03T19:20:11.358Z,61.27
2019-01-03T19:23:02.130Z,61.73
2019-01-03T19:25:51.974Z,61.44
2019-01-03T19:28:42.222Z,61.28
2019-01-03T19:31:33.005Z,61.23
2019-01-03T19:34:23.090Z,61.32
2019-01-03T19:37:12.900Z,61.24
2019-01-03T19:40:02.898Z,61.31
2019-01-03T19:42:53.189Z,61.36
2019-01-03T19:45:42.906Z,61.31
2019-01-03T19:48:32.480Z,61.23
2019-01-03T19:51:23.553Z,61.34
2019-01-03T19:54:13.732Z,61.39
2019-01-03T19:57:03.432Z,61.46
2019-01-03T19:59:52.966Z,61.43
2019-01-03T20:02:42.893Z,61.64
2019-01-03T20:05:32.629Z,61.73
2019-01-03T20:08:22.124Z,61.59
2019-01-03T20:11:11.826Z,61.69
2019-01-03T20:14:01.399Z,61.96
2019-01-03T20:16:50.734Z,62.00
2019-01-03T20:19:40.627Z,62.05
2019-01-03T20:22:29.965Z,62.04
2019-01-03T20:25:20.023Z,62.08
2019-01-03T20:28:09.976Z,62.16
2019-01-03T20:31:00.256Z,62.18
2019-01-03T20:33:50.267Z,62.17
2019-01-03T20:36:40.127Z,62.16
2019-01-03T20:39:30.118Z,62.26
2019-01-03T20:42:20.427Z,62.53
2019-01-03T20:45:12.547Z,63.14
2019-01-03T20:48:02.656Z,62.85
2019-01-03T20:50:52.756Z,62.92
2019-01-03T20:53:42.507Z,63.09
2019-01-03T20:56:32.657Z,63.19
2019-01-03T20:59:22.399Z,63.25
2019-01-03T21:02:12.524Z,63.28
2019-01-03T21:05:02.360Z,63.37
2019-01-03T21:07:52.108Z,63.62
2019-01-03T21:10:42.074Z,63.72
2019-01-03T21:13:33.430Z,63.72
2019-01-03T21:16:23.051Z,63.78
2019-01-03T21:19:13.109Z,63.70
2019-01-03T21:22:05.457Z,64.16
2019-01-03T21:24:57.262Z,63.92
2019-01-03T21:27:48.886Z,63.75
2019-01-03T21:30:40.638Z,63.60
2019-01-03T21:33:32.427Z,63.69
2019-01-03T21:36:22.900Z,63.67
2019-01-03T21:39:13.294Z,63.60
2019-01-03T21:42:04.069Z,63.60
2019-01-03T21:44:55.099Z,63.58
2019-01-03T21:47:45.290Z,63.54
2019-01-03T21:50:35.594Z,63.57
2019-01-03T21:53:25.408Z,63.63
2019-01-03T21:56:15.067Z,63.60
2019-01-03T21:59:05.078Z,63.61
2019-01-03T22:01:54.952Z,63.70
2019-01-03T22:04:45.022Z,63.92
2019-01-03T22:07:35.101Z,63.74
2019-01-03T22:10:25.400Z,63.79
2019-01-03T22:13:15.519Z,63.69
2019-01-03T22:16:06.378Z,63.68
2019-01-03T22:18:57.282Z,63.89
2019-01-03T22:21:47.402Z,64.12
2019-01-03T22:24:37.075Z,64.13
2019-01-03T22:27:27.392Z,64.05
2019-01-03T22:30:17.670Z,64.05
2019-01-03T22:33:07.452Z,64.01
2019-01-03T22:35:57.626Z,63.97
2019-01-03T22:38:47.561Z,63.91
2019-01-03T22:41:37.824Z,63.98
2019-01-03T22:44:27.796Z,63.96
2019-01-03T22:47:17.905Z,64.00
2019-01-03T22:50:10.196Z,63.95
2019-01-03T22:52:59.899Z,63.80
2019-01-03T22:55:50.907Z,63.84
2019-01-03T22:58:40.782Z,63.92
2019-01-03T23:01:32.028Z,63.96
2019-01-03T23:04:21.886Z,64.01
2019-01-03T23:07:11.970Z,64.02
2019-01-03T23:10:02.315Z,63.93
2019-01-03T23:12:53.532Z,63.96
2019-01-03T23:15:43.947Z,63.97
2019-01-03T23:18:33.898Z,63.95
2019-01-03T23:21:23.679Z,63.92
2019-01-03T23:24:13.850Z,63.87
2019-01-03T23:27:04.210Z,63.89
2019-01-03T23:29:53.203Z,63.88
2019-01-03T23:32:43.439Z,63.84
2019-01-03T23:35:33.585Z,63.88
2019-01-03T23:38:23.293Z,63.91
2019-01-03T23:41:13.404Z,64.01
2019-01-03T23:44:05.006Z,64.01
2019-01-03T23:46:55.486Z,64.15
2019-01-03T23:49:45.697Z,64.05
2019-01-03T23:52:36.031Z,63.99
2019-01-03T23:55:26.940Z,64.01
2019-01-03T23:58:16.564Z,63.97
